Time;durP1;ratioP1;P1;durP2;ratioP2;P2;SDS_P1;SDS_P2;PMS_P1;PMS_P2;Temp;Humidity;BMP_temperature;BMP_pressure;BME280_temperature;BME280_humidity;BME280_pressure;Samples;Min_cycle;Max_cycle;Signal;HPM_P1;HPM_P2
2023/12/05 00:00:21;;;;;;;21.90;16.80;;;6.50;85.10;;;;;;5091531;28;20827;-64
2023/12/05 00:02:50;;;;;;;20.17;15.47;;;6.60;85.20;;;;;;5091335;28;20478;-65
2023/12/05 00:05:16;;;;;;;17.23;13.83;;;6.60;85.20;;;;;;5091141;28;20447;-64
2023/12/05 00:07:43;;;;;;;23.97;15.93;;;6.60;85.20;;;;;;5079782;28;20446;-64
2023/12/05 00:10:10;;;;;;;18.43;15.20;;;6.60;85.30;;;;;;5091467;28;20470;-64
2023/12/05 00:12:37;;;;;;;20.40;15.17;;;6.60;85.30;;;;;;5081406;28;20441;-64
2023/12/05 00:15:05;;;;;;;19.70;14.43;;;6.60;85.30;;;;;;5091166;28;20440;-64
2023/12/05 00:17:32;;;;;;;19.37;14.00;;;6.60;85.30;;;;;;5091198;28;20473;-65
2023/12/05 00:20:03;;;;;;;20.40;16.40;;;6.60;85.30;;;;;;5091400;28;20443;-64
2023/12/05 00:22:30;;;;;;;20.07;15.53;;;6.60;85.20;;;;;;5091156;28;20524;-65
2023/12/05 00:24:57;;;;;;;21.30;15.17;;;6.60;85.20;;;;;;5091259;28;20813;-64
2023/12/05 00:27:24;;;;;;;21.83;14.83;;;6.60;85.30;;;;;;5090885;28;20536;-65
2023/12/05 00:29:51;;;;;;;19.27;14.67;;;6.60;85.40;;;;;;5090829;28;20461;-65
2023/12/05 00:32:20;;;;;;;20.53;14.63;;;6.70;86.30;;;;;;5090462;28;20447;-65
2023/12/05 00:34:47;;;;;;;23.73;16.47;;;6.60;85.40;;;;;;5091032;28;20526;-65
2023/12/05 00:37:15;;;;;;;20.27;15.67;;;6.60;85.60;;;;;;5091207;28;20529;-65
2023/12/05 00:39:42;;;;;;;20.37;15.37;;;6.60;85.80;;;;;;5091198;28;20443;-65
2023/12/05 00:42:09;;;;;;;23.93;18.13;;;6.60;85.90;;;;;;5090704;28;20452;-64
2023/12/05 00:44:36;;;;;;;22.37;17.70;;;6.60;85.80;;;;;;5090641;28;20442;-65
2023/12/05 00:47:04;;;;;;;21.03;16.30;;;6.60;85.90;;;;;;5090361;28;20650;-64
2023/12/05 00:49:32;;;;;;;20.97;15.73;;;6.60;85.70;;;;;;5092480;28;20814;-64
2023/12/05 00:51:59;;;;;;;21.10;15.80;;;6.60;85.70;;;;;;5100557;28;20450;-65
2023/12/05 00:54:27;;;;;;;18.50;13.77;;;6.60;85.70;;;;;;5091180;28;20445;-65
2023/12/05 00:56:54;;;;;;;20.87;14.97;;;6.50;85.90;;;;;;5090095;28;20443;-64
2023/12/05 00:59:21;;;;;;;21.83;15.00;;;6.50;86.20;;;;;;5090633;28;20454;-65
2023/12/05 01:01:48;;;;;;;21.03;15.90;;;6.50;86.10;;;;;;5090933;28;20466;-65
2023/12/05 01:04:15;;;;;;;18.57;14.50;;;6.60;86.20;;;;;;5090574;28;20563;-65
2023/12/05 01:06:43;;;;;;;19.07;15.10;;;6.50;86.50;;;;;;5089650;28;20442;-65
2023/12/05 01:09:10;;;;;;;18.07;14.07;;;6.60;85.90;;;;;;5090130;28;20442;-65
2023/12/05 01:11:38;;;;;;;17.77;13.93;;;6.60;85.80;;;;;;5090361;28;20472;-65
2023/12/05 01:14:05;;;;;;;18.50;14.83;;;6.60;86.60;;;;;;5089888;28;20495;-65
2023/12/05 01:16:32;;;;;;;17.13;13.93;;;6.60;86.10;;;;;;5089711;28;20458;-65
2023/12/05 01:18:59;;;;;;;23.23;15.90;;;6.60;86.00;;;;;;5090636;28;20541;-65
2023/12/05 01:21:26;;;;;;;20.87;14.83;;;6.60;86.10;;;;;;5089903;28;20445;-65
2023/12/05 01:23:53;;;;;;;19.57;15.07;;;6.60;86.00;;;;;;5088657;28;20500;-65
2023/12/05 01:26:20;;;;;;;23.93;15.83;;;6.60;86.00;;;;;;5090194;28;20453;-65
2023/12/05 01:28:48;;;;;;;18.40;14.20;;;6.60;86.00;;;;;;5090046;28;20447;-64
2023/12/05 01:31:15;;;;;;;21.67;14.27;;;6.60;85.90;;;;;;5090496;28;20455;-65
2023/12/05 01:33:42;;;;;;;20.13;15.20;;;6.60;86.00;;;;;;5070555;28;20788;-65
2023/12/05 01:36:11;;;;;;;19.23;14.80;;;6.70;85.80;;;;;;5088249;28;20449;-64
2023/12/05 01:38:38;;;;;;;18.50;14.60;;;6.70;86.00;;;;;;5090823;28;20446;-64
2023/12/05 01:41:05;;;;;;;19.63;14.33;;;6.70;86.00;;;;;;5090742;28;20462;-65
2023/12/05 01:43:32;;;;;;;19.27;13.90;;;6.70;85.90;;;;;;5090968;28;20480;-63
2023/12/05 01:46:01;;;;;;;20.27;13.73;;;6.70;85.80;;;;;;5090875;28;20434;-64
2023/12/05 01:48:29;;;;;;;19.43;13.70;;;6.70;86.60;;;;;;5091192;28;20505;-65
2023/12/05 01:50:56;;;;;;;19.77;14.07;;;6.60;85.90;;;;;;5091149;28;20521;-64
2023/12/05 01:53:23;;;;;;;20.13;14.67;;;6.60;85.80;;;;;;5091302;28;20443;-65
2023/12/05 01:55:51;;;;;;;21.20;15.00;;;6.60;85.80;;;;;;5090410;28;20521;-64
2023/12/05 01:58:19;;;;;;;21.57;14.07;;;6.60;85.90;;;;;;5090575;28;20446;-65
2023/12/05 02:00:46;;;;;;;19.77;14.03;;;6.70;86.00;;;;;;5090641;28;20469;-64
2023/12/05 02:03:15;;;;;;;21.27;15.40;;;6.60;85.90;;;;;;5089973;28;20985;-65
2023/12/05 02:05:42;;;;;;;18.37;14.10;;;6.60;86.00;;;;;;5090555;28;20522;-65
2023/12/05 02:08:12;;;;;;;18.57;14.07;;;6.60;86.20;;;;;;5091039;28;20468;-65
2023/12/05 02:10:40;;;;;;;18.80;14.03;;;6.60;86.20;;;;;;5073801;28;20445;-65
2023/12/05 02:13:07;;;;;;;22.33;15.27;;;6.60;86.10;;;;;;5090997;28;20879;-64
2023/12/05 02:15:33;;;;;;;20.73;15.43;;;6.60;86.00;;;;;;5090051;28;20469;-63
2023/12/05 02:18:11;;;;;;;17.00;13.13;;;6.70;86.00;;;;;;5090480;28;20529;-65
2023/12/05 02:20:47;;;;;;;19.30;14.20;;;6.60;85.80;;;;;;5093445;28;20438;-65
2023/12/05 02:23:46;;;;;;;20.53;14.13;;;6.70;86.00;;;;;;5094530;28;20846;-65
2023/12/05 02:26:27;;;;;;;17.07;13.30;;;6.70;85.90;;;;;;5094802;28;20454;-65
2023/12/05 02:28:55;;;;;;;17.83;13.77;;;6.60;85.90;;;;;;5094899;28;20446;-65
2023/12/05 02:31:22;;;;;;;20.30;14.00;;;6.50;85.80;;;;;;5093885;28;20457;-65
2023/12/05 02:33:50;;;;;;;17.47;14.17;;;6.40;85.80;;;;;;5094306;28;20544;-65
2023/12/05 02:36:25;;;;;;;20.60;14.93;;;6.30;86.10;;;;;;5094289;28;20473;-66
2023/12/05 02:39:03;;;;;;;19.17;14.87;;;6.30;86.20;;;;;;5094346;28;20533;-64
2023/12/05 02:41:33;;;;;;;19.13;14.07;;;6.20;86.60;;;;;;5094126;28;20438;-65
2023/12/05 02:44:07;;;;;;;22.30;15.03;;;6.10;86.40;;;;;;5094318;28;20486;-64
2023/12/05 02:46:36;;;;;;;20.60;14.13;;;6.10;86.60;;;;;;5094269;28;20959;-64
2023/12/05 02:49:05;;;;;;;21.17;14.43;;;6.10;86.80;;;;;;5081458;28;20516;-64
2023/12/05 02:51:32;;;;;;;20.27;14.63;;;6.10;87.20;;;;;;5093650;28;20469;-65
2023/12/05 02:54:01;;;;;;;21.07;14.37;;;6.20;87.70;;;;;;5093070;28;21458;-65
2023/12/05 02:56:29;;;;;;;20.10;14.50;;;6.20;87.90;;;;;;5093448;28;20486;-65
2023/12/05 02:58:56;;;;;;;19.53;13.67;;;6.20;88.70;;;;;;5093950;28;20515;-65
2023/12/05 03:01:24;;;;;;;19.27;14.17;;;6.30;87.90;;;;;;5093806;28;20493;-65
2023/12/05 03:03:51;;;;;;;17.90;13.20;;;6.30;87.90;;;;;;5091835;28;20561;-64
2023/12/05 03:06:18;;;;;;;21.30;13.27;;;6.30;88.10;;;;;;5089593;28;20550;-65
2023/12/05 03:08:45;;;;;;;18.87;13.47;;;6.40;88.20;;;;;;5090580;28;20469;-65
2023/12/05 03:11:11;;;;;;;18.57;13.07;;;6.40;88.80;;;;;;5093619;28;20457;-65
2023/12/05 03:13:41;;;;;;;17.30;12.50;;;6.50;88.00;;;;;;5093511;28;20497;-65
2023/12/05 03:16:09;;;;;;;17.63;13.43;;;6.50;88.10;;;;;;5093358;28;20443;-65
2023/12/05 03:18:37;;;;;;;20.67;14.40;;;6.50;88.20;;;;;;5093285;28;20439;-65
2023/12/05 03:21:04;;;;;;;17.67;13.03;;;6.60;88.30;;;;;;5093656;28;20481;-65
2023/12/05 03:23:31;;;;;;;19.07;12.70;;;6.60;88.20;;;;;;5092962;28;20536;-65
2023/12/05 03:25:58;;;;;;;16.73;12.93;;;6.70;88.50;;;;;;5092718;28;20435;-65
2023/12/05 03:28:25;;;;;;;17.00;12.70;;;6.70;88.40;;;;;;5093322;28;20786;-65
2023/12/05 03:30:52;;;;;;;22.00;13.47;;;6.70;88.20;;;;;;5092508;28;20457;-65
2023/12/05 03:33:19;;;;;;;17.93;13.00;;;6.80;88.50;;;;;;5093013;28;20431;-65
2023/12/05 03:35:47;;;;;;;14.97;11.47;;;6.80;88.50;;;;;;5092868;28;20443;-65
2023/12/05 03:38:14;;;;;;;17.77;11.70;;;6.90;88.60;;;;;;5092672;28;20442;-65
2023/12/05 03:40:40;;;;;;;17.73;12.30;;;6.90;88.50;;;;;;5092478;28;20454;-65
2023/12/05 03:43:07;;;;;;;17.97;12.00;;;6.90;88.60;;;;;;5093248;28;20439;-65
2023/12/05 03:45:34;;;;;;;15.80;11.67;;;7.00;88.70;;;;;;5092577;28;20454;-65
2023/12/05 03:48:01;;;;;;;14.10;10.70;;;7.00;88.70;;;;;;5092449;28;20470;-65
2023/12/05 03:50:28;;;;;;;16.80;10.80;;;7.10;88.70;;;;;;5092882;28;20450;-64
2023/12/05 03:52:56;;;;;;;15.63;11.27;;;7.10;88.80;;;;;;5092786;28;20435;-64
2023/12/05 03:55:22;;;;;;;14.33;10.47;;;7.10;88.30;;;;;;5092304;28;20890;-65
2023/12/05 03:57:49;;;;;;;16.20;11.43;;;7.20;88.20;;;;;;5092522;28;20446;-65
2023/12/05 04:00:17;;;;;;;16.67;11.17;;;7.20;88.10;;;;;;5090043;28;20470;-65
2023/12/05 04:02:44;;;;;;;15.70;11.30;;;7.20;88.10;;;;;;5092551;28;20477;-65
2023/12/05 04:05:11;;;;;;;14.47;10.77;;;7.20;88.20;;;;;;5092292;28;20493;-64
2023/12/05 04:07:38;;;;;;;15.90;10.93;;;7.30;88.30;;;;;;5092425;28;20492;-65
2023/12/05 04:10:07;;;;;;;13.83;10.13;;;7.30;88.30;;;;;;5091827;28;20458;-65
2023/12/05 04:12:35;;;;;;;14.90;10.93;;;7.40;88.30;;;;;;5091924;28;20473;-65
2023/12/05 04:15:04;;;;;;;14.73;9.67;;;7.40;88.40;;;;;;5092239;28;20442;-65
2023/12/05 04:17:31;;;;;;;12.47;8.30;;;7.40;88.50;;;;;;5079500;28;20455;-64
2023/12/05 04:19:58;;;;;;;10.47;8.80;;;7.40;88.90;;;;;;5091856;28;20439;-65
2023/12/05 04:22:25;;;;;;;12.13;9.00;;;7.50;89.20;;;;;;5091759;28;20439;-65
2023/12/05 04:24:52;;;;;;;11.67;8.83;;;7.50;89.40;;;;;;5091344;28;20478;-65
2023/12/05 04:27:20;;;;;;;10.63;9.13;;;7.50;89.60;;;;;;5091880;28;20482;-65
2023/12/05 04:29:47;;;;;;;12.30;9.27;;;7.50;89.80;;;;;;5091862;28;20482;-65
2023/12/05 04:32:13;;;;;;;10.63;9.37;;;7.50;89.80;;;;;;5092373;28;20781;-65
2023/12/05 04:34:43;;;;;;;11.10;8.50;;;7.60;89.90;;;;;;5091392;28;20445;-65
2023/12/05 04:37:09;;;;;;;13.43;7.80;;;7.60;90.00;;;;;;5091814;28;20505;-65
2023/12/05 04:39:36;;;;;;;12.53;8.80;;;7.60;90.00;;;;;;5091358;28;20445;-65
2023/12/05 04:42:04;;;;;;;12.23;8.67;;;7.70;90.10;;;;;;5091609;28;20522;-65
2023/12/05 04:44:32;;;;;;;12.43;8.67;;;7.70;90.00;;;;;;5090829;28;20533;-65
2023/12/05 04:46:59;;;;;;;9.90;7.83;;;7.80;89.80;;;;;;5092003;28;20439;-65
2023/12/05 04:49:26;;;;;;;10.10;8.13;;;7.80;89.50;;;;;;5091471;28;20545;-65
2023/12/05 04:51:54;;;;;;;10.33;7.83;;;7.90;89.60;;;;;;5091503;28;20783;-65
2023/12/05 04:54:21;;;;;;;10.47;7.73;;;7.90;89.50;;;;;;5091249;28;20473;-65
2023/12/05 04:56:48;;;;;;;9.53;7.60;;;7.90;89.40;;;;;;5091260;28;20888;-66
2023/12/05 04:59:14;;;;;;;9.97;7.70;;;7.90;89.50;;;;;;5091497;28;20849;-65
2023/12/05 05:01:43;;;;;;;10.13;8.17;;;7.90;89.20;;;;;;5090252;28;20533;-64
2023/12/05 05:04:10;;;;;;;9.80;8.03;;;7.90;89.10;;;;;;5089300;28;20489;-65
2023/12/05 05:06:37;;;;;;;8.37;7.20;;;7.90;89.00;;;;;;5091471;28;20447;-65
2023/12/05 05:09:04;;;;;;;9.27;7.43;;;7.90;89.00;;;;;;5090857;28;20453;-65
2023/12/05 05:11:31;;;;;;;8.73;7.20;;;7.90;88.90;;;;;;5091169;28;20487;-65
2023/12/05 05:13:58;;;;;;;8.87;6.70;;;8.00;89.30;;;;;;5090678;28;20518;-65
2023/12/05 05:16:25;;;;;;;7.67;6.27;;;8.00;89.70;;;;;;5087456;28;20470;-65
2023/12/05 05:18:54;;;;;;;8.67;6.57;;;8.00;89.50;;;;;;5089119;28;20450;-65
2023/12/05 05:21:21;;;;;;;7.80;6.77;;;8.00;90.10;;;;;;5090772;28;20446;-65
2023/12/05 05:23:48;;;;;;;7.83;5.83;;;8.00;89.70;;;;;;5080055;28;20467;-65
2023/12/05 05:26:14;;;;;;;7.30;6.07;;;8.00;90.00;;;;;;5091425;28;20960;-65
2023/12/05 05:28:41;;;;;;;8.27;6.40;;;8.10;89.90;;;;;;5091508;28;20450;-65
2023/12/05 05:31:08;;;;;;;7.20;6.03;;;8.10;89.90;;;;;;5090914;28;20450;-65
2023/12/05 05:33:35;;;;;;;7.83;5.77;;;8.10;89.80;;;;;;5090131;28;20930;-65
2023/12/05 05:36:04;;;;;;;7.53;5.80;;;8.10;90.00;;;;;;5090957;28;20894;-65
2023/12/05 05:38:31;;;;;;;6.07;4.90;;;8.10;90.00;;;;;;5091610;28;20440;-65
2023/12/05 05:41:04;;;;;;;6.03;4.17;;;8.20;90.10;;;;;;5055494;28;20541;-65
2023/12/05 05:43:31;;;;;;;6.37;4.50;;;8.20;90.70;;;;;;5090917;28;20962;-65
2023/12/05 05:45:58;;;;;;;6.50;4.17;;;8.20;90.60;;;;;;5090880;28;20478;-65
2023/12/05 05:48:25;;;;;;;4.60;3.90;;;8.20;90.50;;;;;;5090684;28;20956;-65
2023/12/05 05:50:52;;;;;;;5.20;3.93;;;8.30;90.70;;;;;;5091276;28;20477;-65
2023/12/05 05:53:20;;;;;;;3.70;2.67;;;8.40;90.50;;;;;;5090995;28;20453;-66
2023/12/05 05:55:47;;;;;;;3.57;2.30;;;8.40;90.80;;;;;;5094337;28;20438;-64
2023/12/05 05:58:14;;;;;;;4.30;1.80;;;8.40;91.50;;;;;;5094980;28;20446;-70
2023/12/05 06:00:40;;;;;;;1.60;1.50;;;8.50;91.80;;;;;;5102839;28;20639;-66
2023/12/05 06:03:07;;;;;;;2.13;1.13;;;8.60;91.90;;;;;;5104523;28;20794;-64
2023/12/05 06:05:34;;;;;;;4.27;1.40;;;8.70;92.10;;;;;;5095291;28;20494;-66
2023/12/05 06:08:01;;;;;;;2.80;1.30;;;8.80;92.20;;;;;;5095464;28;20438;-65
2023/12/05 06:10:29;;;;;;;1.83;1.50;;;8.90;92.00;;;;;;5094690;28;20442;-65
2023/12/05 06:12:56;;;;;;;1.97;1.50;;;9.00;91.90;;;;;;5094264;28;20533;-65
2023/12/05 06:15:22;;;;;;;3.23;1.60;;;9.10;91.90;;;;;;5094423;28;20438;-65
2023/12/05 06:17:49;;;;;;;1.87;1.43;;;9.20;91.90;;;;;;5093214;28;20465;-65
2023/12/05 06:20:17;;;;;;;3.70;1.53;;;9.20;91.70;;;;;;5102419;28;20442;-65
2023/12/05 06:22:45;;;;;;;2.50;1.13;;;9.30;91.60;;;;;;5083425;28;20447;-65
2023/12/05 06:25:12;;;;;;;6.03;3.33;;;9.40;91.60;;;;;;5094954;28;20486;-65
2023/12/05 06:27:41;;;;;;;3.67;1.40;;;9.40;91.40;;;;;;5059395;28;20468;-65
2023/12/05 06:30:08;;;;;;;2.13;1.63;;;9.40;91.40;;;;;;5095010;28;21083;-65
2023/12/05 06:32:35;;;;;;;2.03;1.00;;;9.40;91.20;;;;;;5094534;28;20541;-65
2023/12/05 06:35:02;;;;;;;2.73;1.17;;;9.50;91.30;;;;;;5094589;28;20466;-64
2023/12/05 06:37:29;;;;;;;1.77;1.13;;;9.60;91.20;;;;;;5060587;28;20446;-65
2023/12/05 06:39:56;;;;;;;3.63;1.40;;;9.60;91.10;;;;;;5094779;28;20952;-65
2023/12/05 06:42:23;;;;;;;2.83;1.17;;;9.70;91.00;;;;;;5092676;28;20519;-65
2023/12/05 06:44:51;;;;;;;2.23;1.20;;;9.80;90.80;;;;;;5094065;28;20509;-65
2023/12/05 06:47:18;;;;;;;1.97;1.10;;;9.70;90.60;;;;;;5093525;28;20474;-65
2023/12/05 06:49:47;;;;;;;2.60;1.40;;;9.80;90.70;;;;;;5094055;28;20529;-64
2023/12/05 06:52:13;;;;;;;1.50;1.20;;;9.80;90.50;;;;;;5094507;28;20558;-65
2023/12/05 06:54:40;;;;;;;2.00;1.23;;;9.90;90.50;;;;;;5093967;28;20957;-65
2023/12/05 06:57:07;;;;;;;1.70;1.10;;;9.90;90.40;;;;;;5093868;28;20439;-63
2023/12/05 06:59:34;;;;;;;1.67;1.00;;;9.90;90.40;;;;;;5094169;28;20555;-65
2023/12/05 07:02:02;;;;;;;3.23;1.10;;;10.00;89.50;;;;;;5094211;28;20949;-65
2023/12/05 07:04:29;;;;;;;2.47;1.10;;;10.00;89.30;;;;;;5093460;28;20486;-65
2023/12/05 07:06:56;;;;;;;4.13;1.37;;;10.00;89.20;;;;;;5093168;28;20449;-65
2023/12/05 07:09:23;;;;;;;2.63;1.10;;;10.00;88.90;;;;;;5093963;28;20454;-65
2023/12/05 07:11:50;;;;;;;2.17;1.37;;;10.00;88.90;;;;;;5093467;28;20973;-64
2023/12/05 07:14:17;;;;;;;1.47;1.20;;;10.00;88.70;;;;;;5093580;28;20530;-65
2023/12/05 07:16:45;;;;;;;1.90;1.50;;;10.10;88.80;;;;;;5093397;28;20473;-65
2023/12/05 07:19:13;;;;;;;2.67;1.50;;;10.00;88.30;;;;;;5093546;28;20962;-64
2023/12/05 07:21:40;;;;;;;2.00;1.30;;;10.00;88.30;;;;;;5093564;28;20930;-65
2023/12/05 07:24:07;;;;;;;1.50;1.30;;;10.10;88.20;;;;;;5093275;28;20435;-64
2023/12/05 07:26:34;;;;;;;2.13;1.40;;;10.10;87.70;;;;;;5094434;28;20519;-64
2023/12/05 07:29:01;;;;;;;3.07;1.23;;;10.20;87.60;;;;;;5089333;28;20476;-64
2023/12/05 07:31:28;;;;;;;1.57;1.03;;;10.10;87.30;;;;;;5093766;28;20455;-64
2023/12/05 07:33:57;;;;;;;4.40;1.10;;;10.20;87.20;;;;;;5094581;28;20462;-64
2023/12/05 07:36:25;;;;;;;1.93;1.10;;;10.20;86.70;;;;;;5094074;28;20817;-64
2023/12/05 07:38:52;;;;;;;2.50;1.20;;;10.20;86.80;;;;;;5093430;28;20531;-64
2023/12/05 07:41:19;;;;;;;1.97;1.20;;;10.30;86.10;;;;;;5092328;28;20720;-65
2023/12/05 07:43:46;;;;;;;2.77;1.30;;;10.30;86.10;;;;;;5092719;28;20496;-65
2023/12/05 07:46:13;;;;;;;2.83;1.20;;;10.30;86.10;;;;;;5092778;28;20860;-64
2023/12/05 07:48:41;;;;;;;1.83;1.27;;;10.40;85.90;;;;;;5092837;28;20434;-65
2023/12/05 07:51:08;;;;;;;2.93;1.20;;;10.40;85.80;;;;;;5093507;28;20447;-65
2023/12/05 07:53:36;;;;;;;3.33;1.20;;;10.40;85.30;;;;;;5092712;28;20945;-63
2023/12/05 07:56:04;;;;;;;1.67;1.53;;;10.40;84.90;;;;;;5092988;28;20488;-64
2023/12/05 07:58:30;;;;;;;2.20;1.30;;;10.40;84.70;;;;;;5092571;28;20541;-63
2023/12/05 08:00:57;;;;;;;1.90;1.20;;;10.40;84.80;;;;;;5091656;28;20466;-64
2023/12/05 08:03:24;;;;;;;1.77;1.20;;;10.50;84.80;;;;;;5092537;28;20814;-64
2023/12/05 08:05:51;;;;;;;2.43;1.17;;;10.50;84.50;;;;;;5092231;28;20492;-63
2023/12/05 08:08:18;;;;;;;3.00;1.40;;;10.50;84.60;;;;;;5092698;28;20442;-64
2023/12/05 08:10:46;;;;;;;4.43;1.37;;;10.50;84.40;;;;;;5092568;28;20446;-64
2023/12/05 08:13:13;;;;;;;1.80;1.20;;;10.50;83.80;;;;;;5091914;28;20470;-64
2023/12/05 08:15:39;;;;;;;2.57;1.20;;;10.50;83.00;;;;;;5092329;28;20465;-64
2023/12/05 08:18:07;;;;;;;2.37;1.17;;;10.50;83.80;;;;;;5091942;28;20452;-64
2023/12/05 08:20:34;;;;;;;3.33;1.40;;;10.50;83.70;;;;;;5092254;28;20524;-64
2023/12/05 08:23:00;;;;;;;2.27;1.13;;;10.60;83.00;;;;;;5088979;28;20439;-65
2023/12/05 08:25:27;;;;;;;2.63;1.40;;;10.60;83.40;;;;;;5091731;28;20496;-65
2023/12/05 08:27:55;;;;;;;3.23;1.30;;;10.60;83.00;;;;;;5091775;28;20851;-64
2023/12/05 08:30:22;;;;;;;2.07;1.20;;;10.60;83.20;;;;;;5092000;28;20964;-64
2023/12/05 08:32:49;;;;;;;3.23;1.30;;;10.60;82.80;;;;;;5091708;28;20475;-64
2023/12/05 08:35:16;;;;;;;2.83;1.20;;;10.60;82.80;;;;;;5092106;28;20438;-64
2023/12/05 08:37:43;;;;;;;2.37;1.03;;;10.60;82.80;;;;;;5092059;28;20446;-64
2023/12/05 08:40:11;;;;;;;4.77;1.37;;;10.60;83.60;;;;;;5092251;28;20529;-64
2023/12/05 08:42:39;;;;;;;4.10;1.53;;;10.70;83.30;;;;;;5091350;28;20473;-64
2023/12/05 08:45:10;;;;;;;2.73;1.40;;;10.80;82.70;;;;;;5091906;28;20906;-64
2023/12/05 08:47:36;;;;;;;2.73;1.30;;;10.90;82.80;;;;;;5091662;28;20442;-64
2023/12/05 08:50:04;;;;;;;4.57;1.37;;;10.90;82.60;;;;;;5091777;28;20538;-64
2023/12/05 08:52:31;;;;;;;1.60;1.37;;;11.00;82.70;;;;;;5092035;28;20469;-64
2023/12/05 08:54:57;;;;;;;2.60;1.13;;;11.00;82.10;;;;;;5091055;28;20449;-64
2023/12/05 08:57:24;;;;;;;2.80;1.30;;;11.00;81.90;;;;;;5091065;28;20448;-65
2023/12/05 08:59:51;;;;;;;1.83;1.20;;;11.00;81.70;;;;;;5091721;28;20512;-64
2023/12/05 09:02:21;;;;;;;3.10;1.33;;;11.10;82.20;;;;;;5091510;28;20442;-64
2023/12/05 09:04:48;;;;;;;3.97;1.40;;;11.10;81.60;;;;;;5091730;28;20471;-64
2023/12/05 09:07:15;;;;;;;2.40;1.27;;;11.10;81.10;;;;;;5091301;28;20525;-64
2023/12/05 09:09:42;;;;;;;3.43;1.40;;;11.10;81.10;;;;;;5091180;28;20449;-64
2023/12/05 09:12:09;;;;;;;1.83;1.27;;;11.20;81.30;;;;;;5091624;28;20474;-64
2023/12/05 09:14:36;;;;;;;3.13;1.47;;;11.20;81.20;;;;;;5091588;28;20472;-64
2023/12/05 09:17:03;;;;;;;3.40;1.50;;;11.30;81.10;;;;;;5091457;28;20487;-64
2023/12/05 09:19:31;;;;;;;2.00;1.50;;;11.40;81.40;;;;;;5091824;28;20447;-64
2023/12/05 09:21:58;;;;;;;3.40;1.40;;;11.50;80.70;;;;;;5070431;28;20530;-64
2023/12/05 09:24:25;;;;;;;6.33;2.03;;;11.50;80.50;;;;;;5091129;28;20472;-64
2023/12/05 09:26:52;;;;;;;1.97;1.60;;;11.50;80.70;;;;;;5091116;28;20485;-64
2023/12/05 09:29:19;;;;;;;3.17;1.47;;;11.50;80.40;;;;;;5090340;28;20442;-65
2023/12/05 09:31:46;;;;;;;2.47;1.60;;;11.60;80.00;;;;;;5090914;28;20615;-65
2023/12/05 09:34:14;;;;;;;2.23;1.20;;;11.70;80.00;;;;;;5091378;28;20481;-64
2023/12/05 09:36:42;;;;;;;1.90;1.30;;;11.70;79.70;;;;;;5090753;28;21191;-65
2023/12/05 09:39:10;;;;;;;1.63;1.10;;;11.70;79.50;;;;;;5090948;28;20474;-64
2023/12/05 09:41:42;;;;;;;2.63;1.37;;;11.70;79.60;;;;;;5090872;28;20450;-64
2023/12/05 09:44:09;;;;;;;1.03;0.90;;;11.60;78.80;;;;;;5091086;28;20464;-62
2023/12/05 09:46:37;;;;;;;3.70;1.20;;;11.60;79.10;;;;;;5090685;28;20482;-64
2023/12/05 09:49:06;;;;;;;1.70;1.10;;;11.60;79.10;;;;;;5091269;28;20936;-64
2023/12/05 09:51:35;;;;;;;2.67;1.10;;;11.60;78.80;;;;;;5090458;28;20466;-65
2023/12/05 09:54:04;;;;;;;2.10;1.10;;;11.60;78.80;;;;;;5090973;28;20521;-64
2023/12/05 09:56:30;;;;;;;1.63;1.13;;;11.70;79.20;;;;;;5090389;28;20494;-64
2023/12/05 09:58:59;;;;;;;3.00;1.27;;;11.70;78.90;;;;;;5090305;28;20446;-64
2023/12/05 10:01:27;;;;;;;1.90;0.80;;;11.60;78.40;;;;;;5062738;28;20872;-64
2023/12/05 10:03:57;;;;;;;1.70;1.30;;;11.70;79.00;;;;;;5091001;28;20473;-64
2023/12/05 10:06:26;;;;;;;2.50;1.10;;;11.70;78.40;;;;;;5090685;28;20478;-64
2023/12/05 10:08:53;;;;;;;2.33;0.90;;;11.60;77.90;;;;;;5089885;28;20450;-64
2023/12/05 10:11:25;;;;;;;2.40;0.97;;;11.60;77.90;;;;;;5090383;28;20977;-64
2023/12/05 10:13:52;;;;;;;1.90;1.20;;;11.60;77.30;;;;;;5090931;28;20465;-64
2023/12/05 10:16:19;;;;;;;1.07;0.90;;;11.60;77.50;;;;;;5091088;28;20443;-64
2023/12/05 10:18:49;;;;;;;3.97;1.73;;;11.50;77.60;;;;;;5090685;28;20537;-64
2023/12/05 10:21:16;;;;;;;2.37;1.20;;;11.60;77.90;;;;;;5090112;28;20434;-64
2023/12/05 10:23:43;;;;;;;1.73;1.20;;;11.60;77.90;;;;;;5072387;28;20957;-64
2023/12/05 10:26:11;;;;;;;1.47;1.30;;;11.60;78.00;;;;;;5090888;28;20569;-64
2023/12/05 10:28:50;;;;;;;1.90;1.10;;;11.60;77.40;;;;;;5090483;28;20485;-63
2023/12/05 10:31:18;;;;;;;1.37;1.20;;;11.70;77.20;;;;;;5090271;28;20487;-64
2023/12/05 10:33:48;;;;;;;2.70;1.27;;;11.70;77.50;;;;;;5091011;28;20442;-64
2023/12/05 10:36:15;;;;;;;2.67;1.40;;;11.70;77.50;;;;;;5090739;28;20449;-64
2023/12/05 10:38:44;;;;;;;0.97;0.93;;;11.70;77.60;;;;;;5088515;28;20595;-64
2023/12/05 10:41:12;;;;;;;2.40;1.20;;;11.60;77.00;;;;;;5091265;28;20804;-64
2023/12/05 10:43:51;;;;;;;1.10;1.00;;;11.60;76.60;;;;;;5093188;28;20438;-64
2023/12/05 10:46:18;;;;;;;2.00;1.20;;;11.50;76.60;;;;;;5093317;28;20485;-64
2023/12/05 10:48:45;;;;;;;2.23;1.30;;;11.50;76.40;;;;;;5093376;28;20473;-64
2023/12/05 10:51:12;;;;;;;1.97;1.40;;;11.50;77.00;;;;;;5092467;28;20468;-64
2023/12/05 10:53:42;;;;;;;2.30;1.53;;;11.60;77.10;;;;;;5093149;28;20443;-64
2023/12/05 10:56:13;;;;;;;2.40;1.27;;;11.60;76.90;;;;;;5093349;28;20705;-62
2023/12/05 10:58:41;;;;;;;1.77;1.20;;;11.60;76.40;;;;;;5092949;28;20842;-64
2023/12/05 11:01:11;;;;;;;1.90;1.40;;;11.60;76.70;;;;;;5092536;28;20470;-64
2023/12/05 11:03:38;;;;;;;1.37;1.20;;;11.60;76.70;;;;;;5092557;28;20442;-64
2023/12/05 11:06:05;;;;;;;1.50;1.00;;;11.60;76.00;;;;;;5092663;28;20474;-64
2023/12/05 11:08:33;;;;;;;1.13;1.03;;;11.60;76.40;;;;;;5092673;28;20531;-65
2023/12/05 11:11:02;;;;;;;1.53;0.90;;;11.60;76.20;;;;;;5092726;28;20500;-64
2023/12/05 11:13:31;;;;;;;2.40;1.40;;;11.60;76.10;;;;;;5092563;28;20478;-64
2023/12/05 11:16:03;;;;;;;3.50;1.30;;;11.70;76.40;;;;;;5092503;28;20806;-63
2023/12/05 11:18:36;;;;;;;2.00;1.03;;;11.70;76.30;;;;;;5092602;28;20529;-64
2023/12/05 11:21:16;;;;;;;1.70;1.30;;;11.80;75.90;;;;;;5092162;28;20535;-64
2023/12/05 11:24:07;;;;;;;3.20;1.13;;;11.80;76.00;;;;;;5081813;28;20472;-64
2023/12/05 11:26:51;;;;;;;1.53;1.10;;;11.70;75.40;;;;;;5090899;28;20889;-64
2023/12/05 11:29:34;;;;;;;2.77;0.93;;;11.80;75.90;;;;;;5091968;28;20446;-65
2023/12/05 11:32:12;;;;;;;1.50;1.00;;;11.90;76.00;;;;;;5089196;28;20446;-64
2023/12/05 11:35:08;;;;;;;0.83;0.80;;;11.80;75.10;;;;;;5073125;28;20438;-65
2023/12/05 11:38:05;;;;;;;1.03;0.90;;;11.80;75.10;;;;;;5078612;28;21025;-64
2023/12/05 11:40:31;;;;;;;1.90;1.30;;;11.90;75.50;;;;;;5092605;28;21101;-64
2023/12/05 11:43:06;;;;;;;1.10;0.87;;;11.90;76.50;;;;;;5092144;28;20549;-64
2023/12/05 11:45:35;;;;;;;1.27;0.90;;;11.90;75.10;;;;;;5092163;28;20451;-64
2023/12/05 11:48:03;;;;;;;1.77;1.00;;;11.80;75.30;;;;;;5092479;28;20518;-64
2023/12/05 11:50:44;;;;;;;2.90;1.30;;;11.80;75.20;;;;;;5091856;28;20993;-64
2023/12/05 11:53:14;;;;;;;3.43;1.50;;;11.70;75.30;;;;;;5105007;28;20922;-64
2023/12/05 11:55:43;;;;;;;1.77;1.00;;;11.70;75.50;;;;;;5091430;28;20799;-65
2023/12/05 11:58:26;;;;;;;1.70;0.80;;;11.70;75.20;;;;;;5092311;28;20923;-65
2023/12/05 12:01:01;;;;;;;1.00;0.70;;;11.60;74.90;;;;;;5092627;28;20465;-63
2023/12/05 12:03:28;;;;;;;1.57;0.90;;;11.70;75.50;;;;;;5083230;28;20476;-64
2023/12/05 12:06:03;;;;;;;1.50;1.40;;;11.80;75.50;;;;;;5092156;28;20807;-65
2023/12/05 12:08:31;;;;;;;3.43;1.00;;;11.70;74.80;;;;;;5092669;28;20445;-64
2023/12/05 12:10:58;;;;;;;1.33;1.00;;;11.70;74.70;;;;;;5092262;28;20449;-65
2023/12/05 12:13:26;;;;;;;1.43;1.17;;;11.70;75.00;;;;;;5091343;28;20537;-64
2023/12/05 12:15:54;;;;;;;2.70;1.50;;;11.70;74.90;;;;;;5094294;28;20468;-64
2023/12/05 12:18:25;;;;;;;3.67;1.97;;;11.70;74.60;;;;;;5092383;28;20497;-64
2023/12/05 12:20:52;;;;;;;1.40;1.00;;;11.70;74.20;;;;;;5086141;28;20447;-65
2023/12/05 12:23:21;;;;;;;1.90;0.90;;;11.70;74.80;;;;;;5088198;28;20943;-64
2023/12/05 12:25:52;;;;;;;2.73;1.23;;;11.80;74.40;;;;;;5091196;28;20521;-63
2023/12/05 12:28:28;;;;;;;3.13;1.20;;;11.90;74.10;;;;;;5091301;28;20498;-64
2023/12/05 12:30:58;;;;;;;1.07;0.93;;;12.00;74.50;;;;;;5091180;28;20460;-64
2023/12/05 12:33:37;;;;;;;2.07;1.20;;;12.10;74.00;;;;;;5090963;28;20454;-64
2023/12/05 12:36:05;;;;;;;1.73;1.37;;;12.20;74.00;;;;;;5091280;28;20446;-64
2023/12/05 12:38:36;;;;;;;2.90;1.63;;;12.30;72.80;;;;;;5090938;28;20442;-64
2023/12/05 12:41:03;;;;;;;3.37;1.20;;;12.20;72.90;;;;;;5091652;28;20488;-64
2023/12/05 12:43:31;;;;;;;2.37;0.90;;;12.20;72.90;;;;;;5091500;28;20529;-64
2023/12/05 12:45:59;;;;;;;4.80;1.60;;;12.30;73.90;;;;;;5055622;28;20537;-64
2023/12/05 12:48:26;;;;;;;2.07;1.10;;;12.40;73.30;;;;;;5090719;28;21184;-64
2023/12/05 12:50:54;;;;;;;4.97;1.30;;;12.30;73.50;;;;;;5091381;28;20522;-64